Etusivu
METAR-TAF:

METAR-TAF

Lentoasemat :

Butte, Montana, Yhdysvallat

Leveyspiiri: 45-57-17N, Pituuspiiri: 112-29-51W, korkeus merenpinnasta: 1690 m

Tämänhetkinen sää

Tämä raportti tehtiin 25 minuuttia sitten, kello 10.53 UTC
tyyntä
Lämpötila 0°C
Kosteus 74%
Ilmanpaine 1013 hPa
Näkyvyys: 16.1 km
selkeää

METAR: KBTM 071053Z AUTO 00000KT 10SM CLR 00/M04 A2990 RMK AO2 SLP118 T00001044

Aika: 05:18 (11:18 UTC)

Sääennuste

Tämä raportti tehtiin 5 tuntia ja 58 minuuttia sitten, kello 05.20 UTC
Ennuste voimassa 07. päivästä klo 06 UTC - 08. päivään klo 06 UTC
Tuuli 5 kn lounaasta
Näkyvyys: 10 km
selkeää
From 07. päivästä klo 2100 UTC
Tuuli 17 kn lännestä puuskistuen 25 kn:hen
Näkyvyys: 10 km
Hajonneita pilviä 10000 ft:n korkeudessa
From 08. päivästä klo 0200 UTC
Tuuli 7 kn lännestä/luoteesta
Näkyvyys: 10 km
Muutamia pilviä 25000 ft:n korkeudessa

TAF: KBTM 070520Z 0706/0806 23005KT P6SM SKC FM072100 27017G25KT P6SM BKN100 FM080200 30007KT P6SM FEW250

Säähavainnot ja -ennusteet yli 4000 lentoasemalta (METAR- ja TAF-raportit).

Käytössä olevat sääasemat on merkitty karttaan keltaisilla ja punaisilla pisteillä.

Aseta hiiri pisteen päälle nähdäksesi sääaseman nimen.

Klikkaa sitten nähdäksesi säähavainnot ja -ennusteet.

Kartan vaihtaminen: klikkaa mustalla rastilla varustettuja vihreitä pisteitä, niin voit zoomata sisään; viivalla varustettua vihreää pistettä, niin voit zoomata ulos tai vihreitä nuolia, niin pääset viereisille kartoille.


METAR-TAF: